Time;durP1;ratioP1;P1;durP2;ratioP2;P2;SDS_P1;SDS_P2;PMS_P1;PMS_P2;Temp;Humidity;BMP_temperature;BMP_pressure;BME280_temperature;BME280_humidity;BME280_pressure;Samples;Min_cycle;Max_cycle;Signal;HPM_P1;HPM_P2
2021/04/11 00:01:57;;;;;;;6.33;5.20;;;12.00;99.90;;;;;;5031483;28;20484;-83
2021/04/11 00:04:23;;;;;;;5.23;4.83;;;11.90;99.90;;;;;;5032137;28;20444;-83
2021/04/11 00:06:49;;;;;;;5.60;5.20;;;11.80;99.90;;;;;;5030455;28;20462;-84
2021/04/11 00:09:14;;;;;;;5.80;5.40;;;11.80;99.90;;;;;;5031642;28;20179;-83
2021/04/11 00:11:40;;;;;;;5.90;5.50;;;11.80;99.90;;;;;;5031938;28;20540;-83
2021/04/11 00:14:07;;;;;;;6.20;5.70;;;11.70;99.90;;;;;;5030990;28;20206;-83
2021/04/11 00:16:34;;;;;;;6.80;6.17;;;11.70;99.90;;;;;;5030856;28;20168;-83
2021/04/11 00:19:00;;;;;;;6.50;6.00;;;11.70;99.90;;;;;;5011278;28;20461;-83
2021/04/11 00:21:25;;;;;;;6.40;5.67;;;11.60;99.90;;;;;;5012193;28;20452;-83
2021/04/11 00:23:51;;;;;;;6.77;6.17;;;11.70;99.90;;;;;;5026900;28;20430;-84
2021/04/11 00:26:17;;;;;;;5.83;5.43;;;11.70;99.90;;;;;;5011184;28;20168;-84
2021/04/11 00:28:43;;;;;;;5.77;5.37;;;11.70;99.90;;;;;;5031931;28;20189;-83
2021/04/11 00:31:08;;;;;;;5.97;5.50;;;11.80;99.90;;;;;;5034998;28;20468;-83
2021/04/11 00:33:40;;;;;;;6.30;5.70;;;11.80;99.90;;;;;;5034345;28;20190;-83
2021/04/11 00:36:12;;;;;;;5.97;5.53;;;11.70;99.90;;;;;;5034821;28;20173;-83
2021/04/11 00:38:38;;;;;;;6.60;6.00;;;11.60;99.90;;;;;;5035970;28;20530;-83
2021/04/11 00:41:26;;;;;;;6.10;5.70;;;11.70;99.90;;;;;;5034419;28;20542;-82
2021/04/11 00:43:53;;;;;;;6.70;5.97;;;11.60;99.90;;;;;;5019926;28;20515;-83
2021/04/11 00:46:27;;;;;;;5.80;5.40;;;11.60;99.90;;;;;;5034351;28;20419;-83
2021/04/11 00:48:53;;;;;;;5.90;5.50;;;11.70;99.90;;;;;;5035568;28;20428;-83
2021/04/11 00:51:25;;;;;;;6.40;5.90;;;11.70;99.90;;;;;;5034860;28;20422;-83
2021/04/11 00:54:03;;;;;;;6.50;6.00;;;11.70;99.90;;;;;;5035214;28;20405;-83
2021/04/11 00:56:34;;;;;;;6.13;5.73;;;11.70;99.90;;;;;;5035385;28;20400;-83
2021/04/11 00:59:01;;;;;;;6.80;5.93;;;11.60;99.90;;;;;;5034716;28;20443;-82
2021/04/11 01:01:27;;;;;;;5.87;5.47;;;11.70;99.90;;;;;;5028029;28;20454;-84
2021/04/11 01:03:53;;;;;;;6.23;5.63;;;11.70;99.90;;;;;;5015357;28;20432;-84
2021/04/11 01:06:24;;;;;;;5.93;5.53;;;11.70;99.90;;;;;;5014536;28;20875;-84
2021/04/11 01:08:52;;;;;;;7.07;6.47;;;11.80;99.90;;;;;;5015723;28;20224;-84
2021/04/11 01:11:26;;;;;;;6.30;5.90;;;11.80;99.90;;;;;;5019663;28;20502;-83
2021/04/11 01:13:57;;;;;;;6.67;6.17;;;11.70;99.90;;;;;;5035095;28;20397;-84
2021/04/11 01:16:24;;;;;;;7.07;6.47;;;11.70;99.90;;;;;;5034040;28;20409;-84
2021/04/11 01:18:50;;;;;;;6.20;5.90;;;11.60;99.90;;;;;;5034650;28;20495;-81
2021/04/11 01:21:59;;;;;;;5.90;5.50;;;11.50;99.90;;;;;;5033402;28;20445;-81
2021/04/11 01:24:46;;;;;;;6.60;6.20;;;11.60;99.90;;;;;;5034477;28;20409;-81
2021/04/11 01:27:14;;;;;;;6.90;6.40;;;11.70;99.90;;;;;;5032290;28;20421;-81
2021/04/11 01:29:41;;;;;;;6.60;6.10;;;11.70;99.90;;;;;;5032903;28;20427;-81
2021/04/11 01:32:10;;;;;;;6.50;6.10;;;11.70;99.90;;;;;;5033900;28;20450;-81
2021/04/11 01:34:38;;;;;;;6.47;5.97;;;11.70;99.90;;;;;;5034333;28;20407;-81
2021/04/11 01:37:06;;;;;;;6.73;6.20;;;11.70;99.90;;;;;;5028173;28;20943;-80
2021/04/11 01:39:35;;;;;;;6.90;6.10;;;11.70;99.90;;;;;;5015081;28;20421;-81
2021/04/11 01:42:03;;;;;;;6.80;6.30;;;11.70;99.90;;;;;;5012329;28;20933;-80
2021/04/11 01:44:32;;;;;;;7.20;6.70;;;11.90;99.90;;;;;;5014626;28;20411;-81
2021/04/11 01:46:58;;;;;;;6.30;5.87;;;11.80;99.90;;;;;;5018747;28;20466;-81
2021/04/11 01:49:25;;;;;;;7.03;6.43;;;11.90;99.90;;;;;;5033552;28;20602;-81
2021/04/11 01:52:00;;;;;;;6.53;6.03;;;12.00;99.90;;;;;;5034583;28;20906;-81
2021/04/11 01:54:30;;;;;;;7.47;6.80;;;12.00;99.90;;;;;;5033850;28;20889;-81
2021/04/11 01:56:56;;;;;;;6.83;6.33;;;11.90;99.90;;;;;;5034078;28;20768;-81
2021/04/11 01:59:27;;;;;;;6.87;6.40;;;12.00;99.90;;;;;;5032084;28;20417;-81
2021/04/11 02:01:54;;;;;;;6.33;5.93;;;12.00;99.90;;;;;;5032908;28;20551;-81
2021/04/11 02:04:21;;;;;;;6.67;6.17;;;11.80;99.90;;;;;;5033311;28;20432;-80
2021/04/11 02:06:51;;;;;;;6.50;6.03;;;11.80;99.90;;;;;;5032592;28;20417;-80
2021/04/11 02:09:24;;;;;;;6.63;6.10;;;11.70;99.90;;;;;;5033445;28;20459;-80
2021/04/11 02:11:50;;;;;;;6.57;6.07;;;11.70;99.90;;;;;;5033936;28;20804;-82
2021/04/11 02:14:16;;;;;;;6.70;6.10;;;11.90;99.90;;;;;;5033069;28;20409;-82
2021/04/11 02:16:43;;;;;;;6.63;6.00;;;11.90;99.90;;;;;;5033790;28;20409;-82
2021/04/11 02:19:17;;;;;;;6.80;6.30;;;12.00;99.90;;;;;;5028599;28;20416;-82
2021/04/11 02:21:46;;;;;;;7.00;6.50;;;11.80;99.90;;;;;;5014020;28;20457;-83
2021/04/11 02:24:13;;;;;;;6.77;6.00;;;11.70;99.90;;;;;;5013121;28;20471;-82
2021/04/11 02:26:39;;;;;;;6.20;5.80;;;11.70;99.90;;;;;;5013868;28;20407;-82
2021/04/11 02:29:20;;;;;;;7.50;6.90;;;11.70;99.90;;;;;;5013021;28;20415;-81
2021/04/11 02:31:45;;;;;;;6.43;5.93;;;11.80;99.90;;;;;;5023834;28;20458;-82
2021/04/11 02:34:22;;;;;;;6.20;5.80;;;11.90;99.90;;;;;;5048147;28;20450;-82
2021/04/11 02:36:50;;;;;;;6.17;5.77;;;12.00;99.90;;;;;;5033490;28;20407;-82
2021/04/11 02:39:20;;;;;;;6.00;5.70;;;12.10;99.90;;;;;;5032892;28;20434;-82
2021/04/11 02:41:47;;;;;;;6.63;6.13;;;12.20;99.90;;;;;;5033375;28;20453;-82
2021/04/11 02:44:14;;;;;;;5.77;5.37;;;12.20;99.90;;;;;;5032268;28;20781;-82
2021/04/11 02:46:41;;;;;;;5.83;5.43;;;12.30;99.90;;;;;;5033534;28;20414;-82
2021/04/11 02:49:12;;;;;;;6.57;5.90;;;12.40;99.90;;;;;;5032396;28;20546;-81
2021/04/11 02:51:39;;;;;;;5.97;5.57;;;12.40;99.90;;;;;;5032946;28;20874;-82
2021/04/11 02:54:08;;;;;;;6.37;5.87;;;12.50;99.90;;;;;;5032753;28;20750;-81
2021/04/11 02:56:38;;;;;;;6.60;6.20;;;12.50;99.90;;;;;;5032763;28;20434;-82
2021/04/11 02:59:04;;;;;;;6.60;6.20;;;12.30;99.90;;;;;;5032605;28;20946;-81
2021/04/11 03:01:34;;;;;;;6.10;5.70;;;12.40;99.90;;;;;;5032469;28;20964;-83
2021/04/11 03:04:01;;;;;;;5.83;5.43;;;12.40;99.90;;;;;;5033057;28;20500;-83
2021/04/11 03:06:31;;;;;;;6.87;6.37;;;12.30;99.90;;;;;;5032167;28;20978;-83
2021/04/11 03:09:02;;;;;;;6.70;6.20;;;12.30;99.90;;;;;;5032591;28;20447;-83
2021/04/11 03:11:44;;;;;;;6.53;6.03;;;12.30;99.90;;;;;;5032045;28;20511;-82
2021/04/11 03:14:13;;;;;;;6.17;5.77;;;12.20;99.90;;;;;;5032094;28;20405;-82
2021/04/11 03:16:42;;;;;;;6.07;5.67;;;12.20;99.90;;;;;;5032777;28;20500;-83
2021/04/11 03:19:08;;;;;;;5.43;5.13;;;12.30;99.90;;;;;;5031747;28;20767;-81
2021/04/11 03:21:35;;;;;;;8.20;7.30;;;12.30;99.90;;;;;;5032413;28;20495;-83
2021/04/11 03:24:03;;;;;;;6.80;6.20;;;12.40;99.90;;;;;;5032629;28;20413;-83
2021/04/11 03:26:53;;;;;;;6.70;6.10;;;12.50;99.90;;;;;;5031835;28;21039;-83
2021/04/11 03:29:29;;;;;;;6.93;6.40;;;12.50;99.90;;;;;;5031193;28;20782;-82
2021/04/11 03:32:13;;;;;;;6.37;5.97;;;12.60;99.90;;;;;;5021590;28;20555;-83
2021/04/11 03:34:41;;;;;;;6.40;6.00;;;12.60;99.90;;;;;;5012767;28;20407;-82
2021/04/11 03:37:09;;;;;;;6.07;5.57;;;12.70;99.90;;;;;;5012166;28;20427;-81
2021/04/11 03:39:36;;;;;;;6.70;6.20;;;12.70;99.90;;;;;;5012299;28;20421;-83
2021/04/11 03:42:09;;;;;;;6.00;5.60;;;12.80;99.90;;;;;;5012587;28;20445;-83
2021/04/11 03:44:36;;;;;;;6.70;6.20;;;12.80;99.90;;;;;;5027903;28;20495;-82
2021/04/11 03:47:15;;;;;;;5.97;5.60;;;12.70;99.90;;;;;;5032590;28;20412;-82
2021/04/11 03:50:06;;;;;;;6.20;5.70;;;12.70;99.90;;;;;;5032442;28;20410;-82
2021/04/11 03:52:46;;;;;;;6.77;6.27;;;12.70;99.90;;;;;;5030455;28;20893;-82
2021/04/11 03:55:19;;;;;;;6.80;6.40;;;12.80;99.90;;;;;;5029464;28;20403;-82
2021/04/11 03:58:08;;;;;;;6.23;5.83;;;12.80;99.90;;;;;;5012605;28;20410;-82
2021/04/11 04:00:38;;;;;;;6.73;6.17;;;12.80;99.90;;;;;;5012341;28;20449;-82
2021/04/11 04:03:12;;;;;;;6.97;6.53;;;12.80;99.90;;;;;;5012113;28;20950;-82
2021/04/11 04:05:39;;;;;;;7.90;7.30;;;12.80;99.90;;;;;;5016025;28;20767;-82
2021/04/11 04:08:06;;;;;;;7.47;6.97;;;12.70;99.90;;;;;;5027291;28;20411;-82
2021/04/11 04:10:37;;;;;;;7.53;7.00;;;12.60;99.90;;;;;;5035437;28;20406;-82
2021/04/11 04:13:08;;;;;;;8.60;7.90;;;12.60;99.90;;;;;;5036283;28;20488;-82
2021/04/11 04:15:39;;;;;;;9.30;8.50;;;12.50;99.90;;;;;;5035576;28;20433;-82
2021/04/11 04:18:56;;;;;;;9.23;8.43;;;12.50;99.90;;;;;;5036115;28;20400;-83
2021/04/11 04:21:52;;;;;;;8.90;8.20;;;12.50;99.90;;;;;;4987196;28;20920;-83
2021/04/11 04:24:47;;;;;;;9.70;8.80;;;12.30;99.90;;;;;;5014350;28;20414;-82
2021/04/11 04:27:47;;;;;;;9.77;8.80;;;12.30;99.90;;;;;;5015217;28;20446;-81
2021/04/11 04:30:26;;;;;;;8.90;8.10;;;12.20;99.90;;;;;;4993919;28;20498;-81
2021/04/11 04:33:13;;;;;;;9.30;8.50;;;12.10;99.90;;;;;;5035573;28;20424;-83
2021/04/11 04:35:58;;;;;;;8.80;8.10;;;12.10;99.90;;;;;;5034542;28;20419;-82
2021/04/11 04:38:48;;;;;;;8.80;8.10;;;12.10;99.90;;;;;;5034942;28;20397;-82
2021/04/11 04:41:29;;;;;;;9.20;8.40;;;12.00;99.90;;;;;;5033921;28;20539;-80
2021/04/11 04:44:16;;;;;;;9.37;8.57;;;12.00;99.90;;;;;;5034175;28;20439;-82
2021/04/11 04:46:42;;;;;;;8.03;7.43;;;11.90;99.90;;;;;;5035438;28;20760;-82
2021/04/11 04:49:21;;;;;;;8.60;7.90;;;11.80;99.90;;;;;;5034542;28;20409;-83
2021/04/11 04:52:12;;;;;;;9.20;8.30;;;11.80;99.90;;;;;;5035681;28;20166;-83
2021/04/11 04:54:46;;;;;;;10.37;8.60;;;11.80;99.90;;;;;;5021655;28;20476;-82
2021/04/11 04:57:35;;;;;;;8.80;8.10;;;11.70;99.90;;;;;;5015129;28;20402;-82
2021/04/11 05:00:13;;;;;;;8.83;7.57;;;11.70;99.90;;;;;;5017513;28;20463;-82
2021/04/11 05:03:00;;;;;;;8.60;7.80;;;11.60;99.90;;;;;;5034913;28;20459;-79
2021/04/11 05:05:28;;;;;;;8.70;7.90;;;11.50;99.90;;;;;;5034379;28;20405;-79
2021/04/11 05:08:15;;;;;;;7.73;7.13;;;11.50;99.90;;;;;;5034815;28;20772;-79
2021/04/11 05:10:59;;;;;;;8.80;8.10;;;11.50;99.90;;;;;;5035150;28;20445;-79
2021/04/11 05:13:26;;;;;;;8.40;7.70;;;11.40;99.90;;;;;;5034353;28;20409;-79
2021/04/11 05:16:25;;;;;;;7.43;6.83;;;11.40;99.90;;;;;;5033627;28;20400;-79
2021/04/11 05:19:19;;;;;;;7.27;6.77;;;11.30;99.90;;;;;;5033778;28;20920;-79
2021/04/11 05:21:58;;;;;;;7.37;6.77;;;11.30;99.90;;;;;;5031851;28;20530;-79
2021/04/11 05:24:28;;;;;;;7.23;6.63;;;11.30;99.90;;;;;;5033901;28;20403;-79
2021/04/11 05:27:03;;;;;;;7.20;6.60;;;11.30;99.90;;;;;;5019672;28;20457;-79
2021/04/11 05:29:44;;;;;;;7.00;6.40;;;11.40;99.90;;;;;;5014064;28;20455;-79
2021/04/11 05:32:11;;;;;;;6.40;5.90;;;11.30;99.90;;;;;;5022843;28;20531;-79
2021/04/11 05:34:36;;;;;;;7.53;6.83;;;11.30;99.90;;;;;;5032291;28;20452;-78
2021/04/11 05:37:12;;;;;;;6.40;5.90;;;11.30;99.90;;;;;;5033232;28;20443;-78
2021/04/11 05:39:56;;;;;;;6.83;6.33;;;11.30;99.90;;;;;;5031106;28;20210;-78
2021/04/11 05:42:30;;;;;;;6.80;6.30;;;11.30;99.90;;;;;;5031888;28;20961;-79
2021/04/11 05:45:13;;;;;;;6.20;5.70;;;11.30;99.90;;;;;;5032740;28;20425;-78
2021/04/11 05:47:39;;;;;;;7.10;6.50;;;11.30;99.90;;;;;;5028860;28;20447;-78
2021/04/11 05:50:28;;;;;;;7.43;6.73;;;11.30;99.90;;;;;;5015059;28;20936;-78
2021/04/11 05:53:11;;;;;;;10.10;9.20;;;11.30;99.90;;;;;;5014688;28;20263;-79
2021/04/11 05:55:41;;;;;;;9.97;9.07;;;11.30;99.90;;;;;;5024731;28;20417;-78
2021/04/11 05:58:39;;;;;;;12.17;10.97;;;11.20;99.90;;;;;;5031374;28;20424;-79
2021/04/11 06:01:13;;;;;;;13.97;12.37;;;11.10;99.90;;;;;;5025524;28;20426;-77
2021/04/11 06:03:54;;;;;;;13.17;11.70;;;11.00;99.90;;;;;;5033216;28;20416;-77
2021/04/11 06:06:47;;;;;;;15.43;13.13;;;11.00;99.90;;;;;;5027627;28;20410;-79
2021/04/11 06:09:37;;;;;;;14.47;12.97;;;10.90;99.90;;;;;;5033673;28;20460;-85
2021/04/11 06:12:34;;;;;;;16.37;13.67;;;10.80;99.90;;;;;;5033589;28;20414;-83
2021/04/11 06:15:24;;;;;;;16.07;13.90;;;10.70;99.90;;;;;;5034088;28;20399;-80
2021/04/11 06:17:51;;;;;;;20.50;18.03;;;11.00;99.90;;;;;;5032899;28;20407;-78
2021/04/11 06:20:17;;;;;;;23.90;19.10;;;11.50;99.90;;;;;;5033360;28;20424;-88
2021/04/11 06:23:01;;;;;;;22.33;17.43;;;12.00;99.90;;;;;;5032458;28;20449;-90
2021/04/11 06:25:43;;;;;;;19.73;17.60;;;12.40;99.90;;;;;;5033453;28;20456;-92
2021/04/11 06:28:35;;;;;;;24.77;18.97;;;12.70;99.90;;;;;;5033955;28;20402;-87
2021/04/11 06:31:04;;;;;;;17.63;14.43;;;13.00;99.90;;;;;;5034209;28;20463;-87
2021/04/11 06:33:36;;;;;;;21.27;16.70;;;13.30;99.90;;;;;;5033203;28;20420;-90
2021/04/11 06:36:09;;;;;;;18.87;16.17;;;13.60;99.90;;;;;;5044859;28;20450;-91
2021/04/11 06:38:47;;;;;;;17.53;14.10;;;13.80;97.10;;;;;;5044204;28;20410;-91
2021/04/11 06:41:22;;;;;;;13.23;11.93;;;13.90;99.30;;;;;;5017404;28;20441;-85
2021/04/11 06:44:40;;;;;;;13.60;12.30;;;14.10;97.90;;;;;;5026366;28;20445;-86
2021/04/11 06:47:23;;;;;;;14.77;13.17;;;14.30;96.00;;;;;;5022379;28;20430;-85
2021/04/11 06:50:14;;;;;;;19.00;15.73;;;14.40;97.60;;;;;;5031234;28;21917;-85
2021/04/11 06:53:13;;;;;;;12.50;11.40;;;14.60;98.20;;;;;;5045814;28;20520;-87
2021/04/11 06:55:58;;;;;;;15.80;14.17;;;14.80;98.10;;;;;;5044008;28;20580;-86
2021/04/11 06:58:36;;;;;;;15.93;14.20;;;15.10;97.40;;;;;;5030145;28;20415;-86
2021/04/11 07:01:07;;;;;;;17.40;15.60;;;15.30;97.20;;;;;;5029661;28;20408;-86
2021/04/11 07:04:07;;;;;;;17.17;15.40;;;15.40;97.60;;;;;;5039170;28;20484;-85
2021/04/11 07:06:57;;;;;;;18.07;16.17;;;15.50;93.70;;;;;;5029109;28;20450;-85
2021/04/11 07:09:49;;;;;;;20.87;18.73;;;15.50;96.20;;;;;;5043516;28;20421;-85
2021/04/11 07:12:52;;;;;;;21.80;19.47;;;15.60;94.90;;;;;;5031395;28;20842;-93
2021/04/11 07:16:11;;;;;;;22.40;18.57;;;15.40;89.30;;;;;;5030203;28;20419;-90
2021/04/11 07:19:43;;;;;;;;;;;;;;;;;;;;;
2021/04/11 07:22:32;;;;;;;;;;;;;;;;;;;;;
2021/04/11 07:25:51;;;;;;;22.20;17.03;;;13.30;90.50;;;;;;5007421;28;21246;-90
2021/04/11 07:29:18;;;;;;;22.43;18.07;;;12.50;92.10;;;;;;5029564;28;20425;-90
2021/04/11 07:32:16;;;;;;;25.90;19.57;;;12.00;93.40;;;;;;5044525;28;20466;-91
2021/04/11 07:35:19;;;;;;;29.40;21.60;;;11.60;94.30;;;;;;5045064;28;20418;-88
2021/04/11 07:38:02;;;;;;;32.77;22.50;;;11.20;95.30;;;;;;5034079;28;20415;-91
2021/04/11 07:41:08;;;;;;;30.97;21.93;;;10.90;96.10;;;;;;5032837;28;20432;-88
2021/04/11 07:43:40;;;;;;;26.60;20.43;;;10.60;96.70;;;;;;5015622;28;20986;-88
2021/04/11 07:46:56;;;;;;;29.00;20.83;;;10.30;97.70;;;;;;5031981;28;20504;-87
2021/04/11 07:49:51;;;;;;;30.33;20.77;;;10.10;98.20;;;;;;5030025;28;20415;-88
2021/04/11 07:52:47;;;;;;;32.30;22.80;;;10.00;98.50;;;;;;5032092;28;20420;-92
2021/04/11 07:55:41;;;;;;;44.93;31.43;;;9.80;99.30;;;;;;5031409;28;20436;-89
2021/04/11 07:58:44;;;;;;;57.80;37.00;;;9.70;99.30;;;;;;5049607;28;20401;-89
2021/04/11 08:01:29;;;;;;;36.17;23.40;;;9.60;99.90;;;;;;5041547;28;20444;-91
2021/04/11 08:04:28;;;;;;;31.93;21.60;;;9.50;99.90;;;;;;5048251;28;20420;-87
2021/04/11 08:07:28;;;;;;;33.40;22.03;;;9.50;99.90;;;;;;5032677;28;20500;-87
2021/04/11 08:10:38;;;;;;;25.37;18.70;;;9.40;99.90;;;;;;5030695;28;20429;-80
2021/04/11 08:13:29;;;;;;;21.33;16.40;;;9.40;99.90;;;;;;5003300;28;20452;-85
2021/04/11 08:16:11;;;;;;;20.93;16.90;;;9.40;99.90;;;;;;5024830;28;20461;-84
2021/04/11 08:19:32;;;;;;;22.00;15.50;;;9.40;99.90;;;;;;5030758;28;20449;-84
2021/04/11 08:22:04;;;;;;;16.90;15.10;;;9.20;99.90;;;;;;5031588;28;20834;-85
2021/04/11 08:25:08;;;;;;;20.73;16.03;;;9.20;99.90;;;;;;5030764;28;20495;-86
2021/04/11 08:28:00;;;;;;;17.60;15.27;;;9.20;99.90;;;;;;5029947;28;20656;-86
2021/04/11 08:30:54;;;;;;;366.23;200.90;;;9.20;99.90;;;;;;5019213;28;20784;-85
2021/04/11 08:33:31;;;;;;;33.93;24.50;;;9.30;99.90;;;;;;5031711;28;20433;-86
2021/04/11 08:36:09;;;;;;;15.93;14.03;;;9.30;99.90;;;;;;5031820;28;20816;-85
2021/04/11 08:39:09;;;;;;;14.80;12.30;;;9.30;99.90;;;;;;5031139;28;20450;-86
2021/04/11 08:41:59;;;;;;;16.47;13.67;;;9.30;99.90;;;;;;5030959;28;20468;-84
2021/04/11 08:45:04;;;;;;;14.67;12.90;;;9.30;99.90;;;;;;5031018;28;20793;-81
2021/04/11 08:47:52;;;;;;;15.23;12.97;;;9.30;99.90;;;;;;5010795;28;20464;-83
2021/04/11 08:50:26;;;;;;;16.63;13.40;;;9.30;99.90;;;;;;5018913;28;20950;-82
2021/04/11 08:53:00;;;;;;;17.73;14.90;;;9.30;99.90;;;;;;5035169;28;20791;-82
2021/04/11 08:56:01;;;;;;;17.03;14.10;;;9.30;99.90;;;;;;5028231;28;20417;-84
2021/04/11 08:58:47;;;;;;;16.40;13.43;;;9.30;99.90;;;;;;5013678;28;20436;-82
2021/04/11 09:01:37;;;;;;;14.67;13.17;;;9.30;99.90;;;;;;5016153;28;20493;-84
2021/04/11 09:04:27;;;;;;;13.97;12.47;;;9.20;99.90;;;;;;5026422;28;20409;-83
2021/04/11 09:06:58;;;;;;;12.63;11.30;;;9.20;99.90;;;;;;5035311;28;20385;-78
2021/04/11 09:09:58;;;;;;;14.90;11.83;;;9.20;99.90;;;;;;5033569;28;20413;-78
2021/04/11 09:13:00;;;;;;;13.57;12.17;;;9.20;99.90;;;;;;5034840;28;20500;-79
2021/04/11 09:15:37;;;;;;;830.67;520.33;;;9.20;99.90;;;;;;5019735;28;20528;-78
2021/04/11 09:18:21;;;;;;;32.67;22.80;;;9.20;99.90;;;;;;5015242;28;20451;-83
2021/04/11 09:21:14;;;;;;;11.33;10.33;;;9.20;99.90;;;;;;5014412;28;20398;-78
2021/04/11 09:23:53;;;;;;;11.30;10.20;;;9.20;99.90;;;;;;5014313;28;20483;-78
2021/04/11 09:26:39;;;;;;;11.43;10.30;;;9.20;99.90;;;;;;5014540;28;20869;-78
2021/04/11 09:29:27;;;;;;;10.30;9.27;;;9.20;99.90;;;;;;5033630;28;20504;-79
2021/04/11 09:32:20;;;;;;;8.90;8.00;;;9.20;99.90;;;;;;5034415;28;20461;-78
2021/04/11 09:35:03;;;;;;;10.27;9.27;;;9.10;99.90;;;;;;5032823;28;20672;-78
2021/04/11 09:37:59;;;;;;;9.60;8.60;;;9.10;99.90;;;;;;5033626;28;20477;-79
2021/04/11 09:40:45;;;;;;;11.47;10.37;;;9.10;99.90;;;;;;5027469;28;20441;-79
2021/04/11 09:43:46;;;;;;;10.60;9.47;;;9.00;99.90;;;;;;5034542;28;20442;-78
2021/04/11 09:46:24;;;;;;;10.97;9.60;;;9.00;99.90;;;;;;5034514;28;20442;-78
2021/04/11 09:49:04;;;;;;;11.23;10.13;;;9.00;99.90;;;;;;5033572;28;20412;-78
2021/04/11 09:52:08;;;;;;;9.97;8.97;;;9.00;99.90;;;;;;5033644;28;20403;-79
2021/04/11 09:54:44;;;;;;;98.50;68.87;;;9.00;99.90;;;;;;4997491;28;20929;-79
2021/04/11 09:57:38;;;;;;;265.47;161.97;;;9.00;99.90;;;;;;5026204;28;20423;-78
2021/04/11 10:00:12;;;;;;;12.10;10.40;;;9.00;99.90;;;;;;5034110;28;20421;-78
2021/04/11 10:02:45;;;;;;;9.10;8.30;;;9.10;99.90;;;;;;5030417;28;20955;-79
2021/04/11 10:05:28;;;;;;;9.27;8.47;;;9.10;99.90;;;;;;5017632;28;20432;-77
2021/04/11 10:08:38;;;;;;;8.87;8.07;;;9.10;99.90;;;;;;5030692;28;20927;-78
2021/04/11 10:11:40;;;;;;;8.23;7.43;;;9.20;99.90;;;;;;5032921;28;20523;-79
2021/04/11 10:14:25;;;;;;;8.10;7.37;;;9.10;99.90;;;;;;5033842;28;20428;-79
2021/04/11 10:16:53;;;;;;;7.63;6.93;;;9.10;99.90;;;;;;5033099;28;21197;-79
2021/04/11 10:19:27;;;;;;;6.10;5.60;;;9.10;99.90;;;;;;5033861;28;20401;-76
2021/04/11 10:22:02;;;;;;;5.90;5.50;;;9.10;99.90;;;;;;5033510;28;20522;-76
2021/04/11 10:24:53;;;;;;;6.53;5.93;;;9.10;99.90;;;;;;5033497;28;20420;-77
2021/04/11 10:27:36;;;;;;;6.00;5.50;;;9.20;99.90;;;;;;5034110;28;20412;-76
2021/04/11 10:30:04;;;;;;;4.70;4.40;;;9.20;99.90;;;;;;5033614;28;20459;-76
2021/04/11 10:32:51;;;;;;;4.40;4.10;;;9.10;99.90;;;;;;5031581;28;20484;-77
2021/04/11 10:35:20;;;;;;;6.10;5.50;;;9.10;99.90;;;;;;5033863;28;20401;-76
2021/04/11 10:37:58;;;;;;;4.30;4.00;;;9.10;99.90;;;;;;5032729;28;20504;-76
2021/04/11 10:40:37;;;;;;;4.33;4.03;;;9.10;99.90;;;;;;5033518;28;20425;-76
2021/04/11 10:43:33;;;;;;;4.17;3.87;;;9.10;99.90;;;;;;5033431;28;20827;-76
2021/04/11 10:46:23;;;;;;;3.13;2.93;;;9.10;99.90;;;;;;5033313;28;20750;-78
2021/04/11 10:49:21;;;;;;;3.33;3.13;;;9.10;99.90;;;;;;5032271;28;20642;-78
2021/04/11 10:51:58;;;;;;;4.40;4.10;;;9.10;99.90;;;;;;5032344;28;20417;-79
2021/04/11 10:55:01;;;;;;;3.60;3.40;;;9.00;99.90;;;;;;5033216;28;20424;-76
2021/04/11 10:57:50;;;;;;;5.60;5.20;;;9.00;99.90;;;;;;5033114;28;20867;-76
2021/04/11 11:00:31;;;;;;;4.10;3.90;;;9.00;99.90;;;;;;5033182;28;20379;-77
2021/04/11 11:03:27;;;;;;;3.63;3.43;;;9.00;99.90;;;;;;5031776;28;20536;-79
2021/04/11 11:06:22;;;;;;;3.47;3.27;;;9.00;99.90;;;;;;5027976;28;20432;-85
2021/04/11 11:09:12;;;;;;;4.00;3.80;;;9.00;99.90;;;;;;5003887;28;20532;-79
2021/04/11 11:12:04;;;;;;;3.50;3.30;;;8.90;99.90;;;;;;5031740;28;20435;-78
2021/04/11 11:14:57;;;;;;;4.30;4.00;;;8.90;99.70;;;;;;5028201;28;20405;-79
2021/04/11 11:17:47;;;;;;;4.10;3.80;;;8.90;99.90;;;;;;5033040;28;20912;-76
2021/04/11 11:20:47;;;;;;;4.00;3.80;;;8.80;99.90;;;;;;5032174;28;20528;-76
2021/04/11 11:23:41;;;;;;;4.77;4.37;;;8.80;99.90;;;;;;5031396;28;21001;-77
2021/04/11 11:26:44;;;;;;;3.60;3.40;;;8.70;99.90;;;;;;5030858;28;20804;-77
2021/04/11 11:29:24;;;;;;;3.30;3.10;;;8.70;99.90;;;;;;5027501;28;20428;-76
2021/04/11 11:32:26;;;;;;;3.40;3.20;;;8.70;99.90;;;;;;5028539;28;20501;-80
2021/04/11 11:34:59;;;;;;;4.23;4.03;;;8.70;99.90;;;;;;5020410;28;20439;-78
2021/04/11 11:37:25;;;;;;;4.60;4.20;;;8.70;99.80;;;;;;5026007;28;20412;-77
2021/04/11 11:40:00;;;;;;;4.23;3.93;;;8.70;99.90;;;;;;5026050;28;21242;-77
2021/04/11 11:42:49;;;;;;;4.00;3.80;;;8.70;99.90;;;;;;5029328;28;20232;-80
2021/04/11 11:45:23;;;;;;;4.27;3.97;;;8.70;99.90;;;;;;5042577;28;20453;-81
2021/04/11 11:47:54;;;;;;;4.37;4.07;;;8.80;99.90;;;;;;5022983;28;20505;-82
2021/04/11 11:50:47;;;;;;;3.73;3.53;;;8.80;99.90;;;;;;5029368;28;20478;-75
2021/04/11 11:53:20;;;;;;;4.63;4.33;;;8.80;99.90;;;;;;5023145;28;20387;-84
2021/04/11 11:56:38;;;;;;;4.67;4.20;;;8.80;99.90;;;;;;5031283;28;20470;-76
2021/04/11 11:59:24;;;;;;;3.77;3.57;;;8.80;99.90;;;;;;4989962;28;20435;-76
2021/04/11 12:01:55;;;;;;;4.10;3.80;;;8.80;99.90;;;;;;4989579;28;20508;-77
2021/04/11 12:04:44;;;;;;;4.10;3.90;;;8.80;99.90;;;;;;5004176;28;20481;-76
2021/04/11 12:07:40;;;;;;;4.23;3.93;;;8.80;99.90;;;;;;5030677;28;20763;-76
2021/04/11 12:10:15;;;;;;;4.07;3.77;;;8.80;99.90;;;;;;5031480;28;20404;-79
2021/04/11 12:13:00;;;;;;;3.63;3.43;;;8.80;99.90;;;;;;5031612;28;20491;-80
2021/04/11 12:15:31;;;;;;;3.37;3.17;;;8.90;99.90;;;;;;5031575;28;20436;-76
2021/04/11 12:18:12;;;;;;;3.80;3.50;;;9.00;99.90;;;;;;5029770;28;20415;-73
2021/04/11 12:20:43;;;;;;;4.60;4.30;;;9.00;99.70;;;;;;5030003;28;20405;-75
2021/04/11 12:23:21;;;;;;;3.97;3.67;;;9.00;99.70;;;;;;5030838;28;20449;-73
2021/04/11 12:25:47;;;;;;;4.50;4.20;;;9.00;99.60;;;;;;5025439;28;20452;-75
2021/04/11 12:28:25;;;;;;;3.70;3.50;;;9.00;99.30;;;;;;5030750;28;20407;-73
2021/04/11 12:30:53;;;;;;;3.80;3.60;;;9.00;99.50;;;;;;5026819;28;20471;-74
2021/04/11 12:33:44;;;;;;;3.97;3.67;;;9.00;99.90;;;;;;5031861;28;20435;-74
2021/04/11 12:36:34;;;;;;;4.17;3.83;;;8.90;99.90;;;;;;5034888;28;20424;-73
2021/04/11 12:39:11;;;;;;;4.40;4.10;;;8.90;99.90;;;;;;5033058;28;20499;-74
2021/04/11 12:41:39;;;;;;;4.30;4.00;;;8.90;99.90;;;;;;5033038;28;20476;-74
2021/04/11 12:44:22;;;;;;;4.13;3.83;;;8.90;99.90;;;;;;5028978;28;20874;-74
2021/04/11 12:47:07;;;;;;;4.43;4.13;;;9.00;99.90;;;;;;5034218;28;20559;-74
2021/04/11 12:49:44;;;;;;;143.70;74.97;;;9.00;99.90;;;;;;5035053;28;20429;-74
2021/04/11 12:52:21;;;;;;;20.87;15.43;;;9.00;99.90;;;;;;5035211;28;20433;-74
2021/04/11 12:55:05;;;;;;;4.00;3.70;;;9.00;99.90;;;;;;5034400;28;20455;-74
2021/04/11 12:57:40;;;;;;;4.10;3.90;;;9.10;99.90;;;;;;5035463;28;20471;-73
2021/04/11 13:00:19;;;;;;;4.30;4.00;;;9.00;99.90;;;;;;5034815;28;20411;-73
2021/04/11 13:03:09;;;;;;;3.93;3.63;;;9.00;99.90;;;;;;5034489;28;20463;-74
2021/04/11 13:05:50;;;;;;;4.20;3.90;;;9.00;99.90;;;;;;5033969;28;20420;-74
2021/04/11 13:08:33;;;;;;;4.40;4.10;;;9.00;99.90;;;;;;5034876;28;20416;-72
2021/04/11 13:11:23;;;;;;;4.60;4.20;;;9.10;99.90;;;;;;5028777;28;20794;-73
2021/04/11 13:14:12;;;;;;;4.27;3.90;;;9.10;99.90;;;;;;5023124;28;20424;-75
2021/04/11 13:16:45;;;;;;;4.17;3.87;;;9.10;99.90;;;;;;5034533;28;20474;-77
2021/04/11 13:19:20;;;;;;;5.03;4.63;;;9.10;99.90;;;;;;5021529;28;20397;-81
2021/04/11 13:22:05;;;;;;;4.60;4.30;;;9.20;99.90;;;;;;5014573;28;20988;-75
2021/04/11 13:24:53;;;;;;;4.70;4.40;;;9.20;99.90;;;;;;5032284;28;20404;-77
2021/04/11 13:27:39;;;;;;;4.97;4.57;;;9.30;99.90;;;;;;5023777;28;20396;-91
2021/04/11 13:30:43;;;;;;;4.10;3.80;;;9.30;99.90;;;;;;5030333;28;20516;-76
2021/04/11 13:33:18;;;;;;;240.17;143.17;;;9.30;99.90;;;;;;5033759;28;20422;-75
2021/04/11 13:36:00;;;;;;;10.13;8.43;;;9.40;99.90;;;;;;5033260;28;20424;-76
2021/04/11 13:38:28;;;;;;;4.30;4.10;;;9.50;99.90;;;;;;5033294;28;20425;-76
2021/04/11 13:41:26;;;;;;;4.00;3.80;;;9.50;99.90;;;;;;5033476;28;20429;-75
2021/04/11 13:44:15;;;;;;;4.23;4.03;;;9.60;99.90;;;;;;5033183;28;20438;-74
2021/04/11 13:47:01;;;;;;;3.83;3.63;;;9.50;99.90;;;;;;5021832;28;20429;-77
2021/04/11 13:49:40;;;;;;;4.10;3.80;;;9.60;99.90;;;;;;5032924;28;20413;-75
2021/04/11 13:52:46;;;;;;;4.90;4.50;;;9.60;99.90;;;;;;5027868;28;20409;-77
2021/04/11 13:55:38;;;;;;;5.33;4.83;;;9.60;99.90;;;;;;5032309;28;20424;-76
2021/04/11 13:58:10;;;;;;;4.47;4.20;;;9.60;99.90;;;;;;5031930;28;20421;-78
2021/04/11 14:01:01;;;;;;;5.43;4.93;;;9.70;99.90;;;;;;5030116;28;20435;-78